Time;durP1;ratioP1;P1;durP2;ratioP2;P2;SDS_P1;SDS_P2;PMS_P1;PMS_P2;Temp;Humidity;BMP_temperature;BMP_pressure;BME280_temperature;BME280_humidity;BME280_pressure;Samples;Min_cycle;Max_cycle;Signal;HPM_P1;HPM_P2
2024/04/22 06:34:04;;;;;;;6.57;5.00;;;;;;;3.19;100.00;99455.22;5510043;26;20991;-80
2024/04/22 06:36:30;;;;;;;5.67;4.53;;;;;;;3.74;100.00;99438.16;5477561;26;38702;-78
2024/04/22 06:38:59;;;;;;;4.73;4.23;;;;;;;4.47;100.00;99459.75;5508856;26;42485;-76
2024/04/22 06:41:26;;;;;;;4.90;4.03;;;;;;;4.77;100.00;99423.91;5493412;26;42754;-78
2024/04/22 06:43:55;;;;;;;4.53;3.80;;;;;;;5.41;96.17;99470.03;5472630;26;43306;-78
2024/04/22 06:46:21;;;;;;;5.30;4.17;;;;;;;5.70;93.33;99460.34;5471345;26;40838;-78
2024/04/22 06:48:50;;;;;;;4.63;3.50;;;;;;;6.03;89.96;99474.16;5473811;26;42789;-80
2024/04/22 06:51:19;;;;;;;4.93;3.90;;;;;;;6.19;87.87;99442.91;5480234;26;42107;-80
2024/04/22 06:53:49;;;;;;;4.73;3.87;;;;;;;6.68;86.01;99479.69;5510804;26;42196;-80
2024/04/22 06:56:15;;;;;;;4.40;3.70;;;;;;;6.81;84.11;99459.91;5508611;26;40265;-81
2024/04/22 06:58:44;;;;;;;5.50;4.70;;;;;;;7.17;81.79;99485.78;5510650;26;41356;-81
2024/04/22 07:01:10;;;;;;;4.90;4.20;;;;;;;7.27;79.27;99483.66;5510245;26;42763;-81
2024/04/22 07:03:39;;;;;;;4.43;4.00;;;;;;;7.38;78.41;99461.22;5509180;26;41845;-79
2024/04/22 07:06:09;;;;;;;5.23;4.03;;;;;;;7.72;77.74;99470.38;5509412;26;41800;-83
2024/04/22 07:08:41;;;;;;;7.53;4.50;;;;;;;8.03;74.70;99478.75;5477052;26;40602;-79
2024/04/22 07:11:10;;;;;;;4.90;4.00;;;;;;;8.16;68.20;99508.94;5477924;26;42990;-78
2024/04/22 07:13:37;;;;;;;4.03;3.63;;;;;;;8.73;69.96;99504.75;5510100;26;43029;-80
2024/04/22 07:16:06;;;;;;;4.07;3.67;;;;;;;9.22;70.99;99486.66;5510444;26;40232;-84
2024/04/22 07:18:33;;;;;;;4.77;4.27;;;;;;;9.55;65.89;99505.34;5508307;26;41955;-81
2024/04/22 07:21:02;;;;;;;5.30;4.03;;;;;;;9.95;65.54;99510.41;5510273;26;43803;-81
2024/04/22 07:23:28;;;;;;;4.80;4.17;;;;;;;10.37;65.04;99512.72;5508032;26;40756;-86
2024/04/22 07:26:05;;;;;;;5.33;4.63;;;;;;;10.59;61.68;99514.25;5508774;26;38970;-83
2024/04/22 07:28:32;;;;;;;5.33;3.87;;;;;;;10.58;60.09;99512.53;5507498;26;40607;-81
2024/04/22 07:31:02;;;;;;;4.87;4.37;;;;;;;10.54;61.34;99493.31;5508681;26;44098;-82
2024/04/22 07:33:29;;;;;;;5.23;4.07;;;;;;;10.58;64.38;99473.69;5509931;26;43129;-86
2024/04/22 07:36:03;;;;;;;4.37;3.83;;;;;;;10.70;60.89;99511.91;5509253;26;40112;-81
2024/04/22 07:38:31;;;;;;;5.70;4.50;;;;;;;10.78;58.30;99533.53;5510150;26;42773;-85
2024/04/22 07:41:04;;;;;;;6.40;4.47;;;;;;;10.67;56.92;99506.75;5509039;26;42914;-81
2024/04/22 07:43:31;;;;;;;4.63;3.67;;;;;;;11.13;58.28;99497.19;5504591;26;42795;-79
2024/04/22 07:46:00;;;;;;;4.50;4.10;;;;;;;11.91;56.70;99511.44;5462318;26;38935;-86
2024/04/22 07:48:26;;;;;;;4.97;3.70;;;;;;;12.71;58.83;99508.44;5493685;26;42076;-80
2024/04/22 07:50:56;;;;;;;4.60;4.13;;;;;;;13.01;54.96;99521.63;5462348;26;45499;-83
2024/04/22 07:53:23;;;;;;;4.47;4.03;;;;;;;13.21;56.83;99498.22;5461988;26;42521;-82
2024/04/22 07:55:52;;;;;;;5.23;3.87;;;;;;;13.38;54.45;99513.09;5493868;26;41399;-82
2024/04/22 07:58:22;;;;;;;4.43;3.83;;;;;;;13.79;54.83;99509.59;5497207;26;40751;-80
2024/04/22 08:00:51;;;;;;;5.30;3.90;;;;;;;14.41;51.00;99553.41;5493954;26;42950;-81
2024/04/22 08:03:18;;;;;;;4.10;3.57;;;;;;;15.13;52.07;99532.47;5494010;26;43055;-80
2024/04/22 08:05:48;;;;;;;4.20;3.47;;;;;;;15.59;46.00;99581.63;5494049;26;41370;-78
2024/04/22 08:08:18;;;;;;;4.00;3.40;;;;;;;15.41;46.43;99532.22;5493827;26;41930;-86
2024/04/22 08:10:49;;;;;;;4.00;3.37;;;;;;;15.35;49.96;99538.84;5492966;26;43723;-86
2024/04/22 08:13:15;;;;;;;10.67;8.03;;;;;;;15.43;46.94;99562.31;5492822;26;42975;-88
2024/04/22 08:15:47;;;;;;;4.67;4.20;;;;;;;15.28;44.56;99569.59;5461995;26;39213;-85
2024/04/22 08:18:14;;;;;;;4.40;3.73;;;;;;;15.40;42.79;99574.06;5461945;26;40645;-80
2024/04/22 08:20:43;;;;;;;4.10;3.70;;;;;;;15.15;45.96;99544.75;5493165;26;42473;-79
2024/04/22 08:23:10;;;;;;;4.40;4.00;;;;;;;15.52;44.73;99555.47;5493757;26;42332;-83
2024/04/22 08:25:39;;;;;;;3.77;3.47;;;;;;;15.69;47.79;99523.09;5492802;26;41304;-82
2024/04/22 08:28:06;;;;;;;3.83;3.53;;;;;;;15.54;47.19;99540.19;5494392;26;41525;-83
2024/04/22 08:30:35;;;;;;;4.13;3.73;;;;;;;16.05;44.75;99567.63;5491600;26;42731;-83
2024/04/22 08:33:04;;;;;;;5.43;4.00;;;;;;;15.53;45.55;99562.53;5492034;26;43331;-82
2024/04/22 08:35:34;;;;;;;4.17;3.60;;;;;;;16.03;45.75;99549.03;5490988;26;38836;-83
2024/04/22 08:38:00;;;;;;;3.70;3.40;;;;;;;15.98;45.01;99551.19;5494159;26;41962;-82
2024/04/22 08:40:30;;;;;;;4.10;3.70;;;;;;;16.20;45.58;99539.75;5493423;26;42411;-83
2024/04/22 08:42:57;;;;;;;4.60;3.77;;;;;;;17.24;41.65;99562.09;5494142;26;43583;-83
2024/04/22 08:45:27;;;;;;;4.23;3.83;;;;;;;18.19;39.73;99579.41;5493799;26;41277;-83
2024/04/22 08:47:53;;;;;;;3.60;3.30;;;;;;;19.38;40.01;99557.59;5492486;26;40952;-83
2024/04/22 08:50:25;;;;;;;3.43;3.20;;;;;;;21.82;36.88;99578.88;5491957;26;43505;-82
2024/04/22 08:52:52;;;;;;;3.57;3.20;;;;;;;23.79;33.63;99586.69;5492310;26;41980;-83
2024/04/22 08:55:21;;;;;;;3.17;2.97;;;;;;;22.28;33.42;99581.59;5490657;26;40310;-82
2024/04/22 08:57:47;;;;;;;3.90;3.30;;;;;;;20.79;34.53;99588.75;5493507;26;41906;-81
2024/04/22 09:00:17;;;;;;;3.70;3.40;;;;;;;21.20;31.27;99608.31;5491393;26;43970;-84
2024/04/22 09:02:43;;;;;;;3.90;3.27;;;;;;;19.81;33.18;99598.63;5461706;26;43805;-85
2024/04/22 09:05:13;;;;;;;3.40;3.10;;;;;;;18.21;35.26;99566.75;5493147;26;39863;-80
2024/04/22 09:07:49;;;;;;;3.10;2.90;;;;;;;17.62;37.51;99566.22;5491036;26;42941;-81
2024/04/22 09:10:22;;;;;;;3.43;3.13;;;;;;;18.39;38.52;99542.91;5461257;26;42634;-83
2024/04/22 09:12:55;;;;;;;2.97;2.73;;;;;;;19.68;35.01;99543.28;5491608;26;42163;-81
2024/04/22 09:15:24;;;;;;;3.60;3.30;;;;;;;20.71;36.83;99542.88;5491925;26;38501;-83
2024/04/22 09:17:51;;;;;;;2.80;2.60;;;;;;;23.05;32.74;99587.22;5491525;26;41702;-82
2024/04/22 09:20:20;;;;;;;3.13;2.93;;;;;;;24.44;30.96;99600.47;5493139;26;41818;-82
2024/04/22 09:22:53;;;;;;;3.23;2.93;;;;;;;23.63;30.10;99606.38;5490948;26;41124;-81
2024/04/22 09:25:19;;;;;;;3.30;3.10;;;;;;;24.77;29.49;99589.69;5494186;26;39970;-81
2024/04/22 09:27:50;;;;;;;2.90;2.60;;;;;;;25.36;28.38;99605.59;5493602;26;41324;-83
2024/04/22 09:30:19;;;;;;;3.15;2.78;;;;;;;26.87;25.95;99598.13;5460620;26;42258;-82
2024/04/22 09:32:50;;;;;;;3.35;3.05;;;;;;;28.70;24.65;99603.72;5460452;26;43039;-83
2024/04/22 09:35:17;;;;;;;2.85;2.65;;;;;;;30.19;22.92;99611.63;5493143;26;41416;-81
2024/04/22 09:37:49;;;;;;;2.58;2.38;;;;;;;30.63;21.77;99619.41;5491187;26;42246;-82
2024/04/22 09:40:18;;;;;;;3.08;2.85;;;;;;;29.58;20.99;99608.75;5491676;26;43188;-82
2024/04/22 09:42:49;;;;;;;3.08;2.80;;;;;;;28.64;22.15;99609.97;5493091;26;42870;-85
2024/04/22 09:45:15;;;;;;;3.78;2.70;;;;;;;27.99;21.81;99606.22;5492933;26;41175;-81
2024/04/22 09:47:45;;;;;;;2.50;2.30;;;;;;;28.01;23.97;99590.56;5490686;26;41854;-79
2024/04/22 09:50:12;;;;;;;2.70;2.50;;;;;;;28.16;21.08;99602.28;5491832;26;43597;-83
2024/04/22 09:52:42;;;;;;;2.30;2.10;;;;;;;26.99;23.67;99594.00;5460764;26;42267;-81
2024/04/22 09:55:08;;;;;;;2.27;2.17;;;;;;;25.94;25.50;99563.75;5493698;26;40169;-83
2024/04/22 09:57:47;;;;;;;3.60;3.23;;;;;;;25.45;23.82;99578.47;5492403;26;41799;-83
2024/04/22 10:00:15;;;;;;;2.53;2.33;;;;;;;25.20;26.72;99543.28;5460621;26;42953;-83
2024/04/22 10:02:45;;;;;;;2.87;2.67;;;;;;;25.27;25.79;99532.56;5490830;26;42139;-84
2024/04/22 10:05:13;;;;;;;2.53;2.33;;;;;;;25.78;25.93;99544.81;5491099;26;38958;-80
2024/04/22 10:07:42;;;;;;;2.80;2.60;;;;;;;25.92;26.57;99549.50;5491070;26;42772;-86
2024/04/22 10:10:10;;;;;;;2.20;2.10;;;;;;;25.01;26.20;99559.88;5493718;26;44027;-84
2024/04/22 10:12:42;;;;;;;2.37;2.17;;;;;;;24.96;26.73;99551.44;5460411;26;43629;-80
2024/04/22 10:15:11;;;;;;;3.07;2.70;;;;;;;24.35;25.28;99541.91;5502156;26;41390;-80
2024/04/22 10:17:40;;;;;;;2.20;2.00;;;;;;;23.75;27.77;99527.66;5493123;26;40569;-81
2024/04/22 10:20:11;;;;;;;2.33;2.10;;;;;;;23.12;28.29;99520.72;5494689;26;43084;-85
2024/04/22 10:22:41;;;;;;;2.03;1.80;;;;;;;22.64;27.82;99514.94;5490685;26;44515;-84
2024/04/22 10:25:08;;;;;;;2.47;2.27;;;;;;;22.27;28.32;99529.47;5437096;26;38995;-82
2024/04/22 10:27:38;;;;;;;2.40;2.17;;;;;;;22.08;30.44;99491.84;5456186;26;41903;-81
2024/04/22 10:30:08;;;;;;;2.43;2.23;;;;;;;21.82;29.51;99519.53;5489485;26;42863;-83
2024/04/22 10:32:37;;;;;;;3.47;2.30;;;;;;;21.51;30.23;99488.50;5492699;26;42029;-81
2024/04/22 10:35:05;;;;;;;3.60;2.13;;;;;;;21.85;30.92;99470.69;5458711;26;42731;-82
2024/04/22 10:37:34;;;;;;;2.57;2.30;;;;;;;22.08;28.26;99508.03;5424395;26;43068;-82
2024/04/22 10:40:00;;;;;;;2.47;2.27;;;;;;;22.61;29.04;99472.94;5482907;26;44635;-83
2024/04/22 10:42:30;;;;;;;2.70;2.50;;;;;;;23.49;30.16;99473.63;5494044;26;42270;-86
2024/04/22 10:44:56;;;;;;;2.87;2.67;;;;;;;23.96;28.87;99491.06;5468872;26;40418;-84
2024/04/22 10:47:28;;;;;;;2.67;2.47;;;;;;;23.08;27.57;99502.31;5456948;26;41489;-84
2024/04/22 10:49:54;;;;;;;2.80;2.47;;;;;;;22.31;29.28;99471.50;5446455;26;41722;-82
2024/04/22 10:52:26;;;;;;;2.40;2.20;;;;;;;21.83;31.03;99448.44;5460691;26;41183;-80
2024/04/22 10:54:52;;;;;;;2.30;2.10;;;;;;;21.25;30.76;99476.72;5471030;26;40313;-80
2024/04/22 10:57:21;;;;;;;3.07;2.63;;;;;;;20.97;31.62;99447.03;5452928;26;41803;-80
2024/04/22 10:59:49;;;;;;;2.63;2.40;;;;;;;22.40;31.72;99430.06;5451770;26;41770;-83
2024/04/22 11:02:18;;;;;;;2.50;2.30;;;;;;;23.95;28.90;99454.19;5454164;26;41900;-81
2024/04/22 11:04:48;;;;;;;2.17;1.97;;;;;;;24.89;26.95;99479.94;5465769;26;40056;-80
2024/04/22 11:07:22;;;;;;;2.20;2.03;;;;;;;24.63;25.39;99508.06;5488721;26;39978;-82
2024/04/22 11:09:49;;;;;;;2.40;2.20;;;;;;;24.10;27.84;99448.13;5480407;26;42759;-82
2024/04/22 11:12:19;;;;;;;2.40;2.20;;;;;;;23.56;28.45;99469.28;5454295;26;41918;-80
2024/04/22 11:14:46;;;;;;;2.40;2.20;;;;;;;22.73;28.17;99466.28;5461102;26;40432;-79
2024/04/22 11:17:22;;;;;;;2.33;2.13;;;;;;;21.99;28.99;99465.81;5490247;26;41792;-80
2024/04/22 11:19:52;;;;;;;2.47;2.27;;;;;;;21.02;29.25;99452.78;5484851;26;41545;-79
2024/04/22 11:22:22;;;;;;;2.03;1.80;;;;;;;20.33;29.52;99468.38;5455883;26;41150;-79
2024/04/22 11:24:49;;;;;;;2.50;2.30;;;;;;;19.56;29.61;99453.03;5458148;26;40329;-81
2024/04/22 11:27:19;;;;;;;2.10;1.93;;;;;;;18.96;30.60;99437.81;5491511;26;41722;-80
2024/04/22 11:29:45;;;;;;;2.70;2.50;;;;;;;18.47;30.96;99423.28;5493282;26;43259;-80
2024/04/22 11:32:14;;;;;;;2.43;2.23;;;;;;;18.46;30.97;99442.16;5493166;26;41931;-81
2024/04/22 11:34:41;;;;;;;2.53;1.90;;;;;;;19.66;29.91;99437.75;5492320;26;41258;-81
2024/04/22 11:37:13;;;;;;;2.20;2.00;;;;;;;21.23;32.64;99420.28;5458456;26;43262;-81
2024/04/22 11:39:39;;;;;;;2.30;2.00;;;;;;;21.47;30.40;99449.38;5457217;26;42949;-81
2024/04/22 11:42:08;;;;;;;1.77;1.67;;;;;;;21.13;30.20;99455.34;5488207;26;41859;-80
2024/04/22 11:44:35;;;;;;;3.43;1.97;;;;;;;20.33;30.72;99446.84;5492815;26;40101;-81
2024/04/22 11:47:04;;;;;;;1.87;1.73;;;;;;;19.45;32.66;99437.00;5493326;26;41635;-81
2024/04/22 11:49:31;;;;;;;3.10;2.00;;;;;;;18.68;33.93;99444.72;5494145;26;42783;-82
2024/04/22 11:52:00;;;;;;;1.90;1.70;;;;;;;17.85;35.58;99417.88;5493691;26;42180;-81
2024/04/22 11:54:29;;;;;;;2.40;1.60;;;;;;;16.99;36.76;99401.75;5492544;26;38785;-82
2024/04/22 11:56:58;;;;;;;2.40;2.10;;;;;;;16.26;38.25;99399.47;5471821;26;41685;-83
2024/04/22 11:59:25;;;;;;;1.73;1.63;;;;;;;15.72;39.42;99413.38;5455911;26;41631;-79
2024/04/22 12:01:54;;;;;;;2.10;1.90;;;;;;;15.25;40.73;99409.69;5424510;26;42061;-79
2024/04/22 12:04:20;;;;;;;3.03;2.00;;;;;;;14.79;41.52;99390.81;5457252;26;39906;-80
2024/04/22 12:06:50;;;;;;;2.50;2.20;;;;;;;14.53;42.61;99395.34;5454357;26;41868;-78
2024/04/22 12:09:16;;;;;;;2.90;2.03;;;;;;;14.03;43.64;99361.50;5456726;26;42684;-79
2024/04/22 12:11:48;;;;;;;2.50;2.30;;;;;;;13.87;45.04;99364.34;5456211;26;41864;-83
2024/04/22 12:14:14;;;;;;;1.90;1.80;;;;;;;13.71;45.21;99363.69;5455705;26;41224;-80
2024/04/22 12:16:44;;;;;;;2.80;2.60;;;;;;;13.52;46.06;99350.75;5424681;26;42374;-82
2024/04/22 12:19:11;;;;;;;2.53;2.00;;;;;;;13.47;46.56;99346.72;5455357;26;42392;-81
2024/04/22 12:21:40;;;;;;;2.40;2.17;;;;;;;13.42;47.68;99347.00;5458512;26;42198;-79
2024/04/22 12:24:06;;;;;;;3.03;1.80;;;;;;;13.39;48.98;99346.34;5491855;26;40656;-79
2024/04/22 12:26:36;;;;;;;2.03;1.87;;;;;;;13.38;48.53;99364.13;5491989;26;42883;-79
2024/04/22 12:29:05;;;;;;;2.00;1.80;;;;;;;13.29;48.26;99372.72;5456602;26;42973;-78
2024/04/22 12:31:34;;;;;;;2.83;2.13;;;;;;;13.14;49.09;99352.38;5456122;26;42372;-79
2024/04/22 12:34:01;;;;;;;2.07;1.90;;;;;;;13.07;47.78;99351.94;5491614;26;41498;-79
2024/04/22 12:36:32;;;;;;;1.90;1.80;;;;;;;13.23;48.70;99365.97;5490891;26;41308;-79
2024/04/22 12:38:58;;;;;;;2.10;1.70;;;;;;;13.18;48.36;99328.19;5490678;26;44639;-79
2024/04/22 12:41:28;;;;;;;1.70;1.60;;;;;;;13.50;48.35;99354.47;5492955;26;41989;-80
2024/04/22 12:43:54;;;;;;;2.00;1.80;;;;;;;13.51;46.86;99350.84;5492463;26;40343;-79
2024/04/22 12:46:26;;;;;;;1.77;1.67;;;;;;;13.51;45.80;99364.16;5491279;26;43248;-79
2024/04/22 12:51:40;;;;;;;1.73;1.63;;;;;;;13.60;45.93;99348.44;5454387;26;43422;-81
2024/04/22 12:54:09;;;;;;;1.67;1.57;;;;;;;13.72;45.86;99343.25;5482624;26;39729;-79
2024/04/22 12:56:38;;;;;;;1.73;1.43;;;;;;;14.09;45.51;99362.91;5490903;26;40933;-79
2024/04/22 12:59:07;;;;;;;1.60;1.50;;;;;;;14.59;45.02;99352.22;5466950;26;43404;-78
2024/04/22 13:01:39;;;;;;;2.53;1.33;;;;;;;15.21;43.80;99365.50;5453997;26;41981;-82
2024/04/22 13:04:08;;;;;;;1.50;1.40;;;;;;;15.20;42.27;99331.81;5444907;26;38755;-81
2024/04/22 13:06:38;;;;;;;1.70;1.60;;;;;;;15.71;41.95;99360.94;5490832;26;41371;-82
2024/04/22 13:09:07;;;;;;;1.40;1.30;;;;;;;15.75;41.58;99363.25;5474129;26;43755;-81
2024/04/22 13:11:36;;;;;;;1.40;1.30;;;;;;;15.78;41.51;99383.56;5456479;26;43223;-80
2024/04/22 13:14:05;;;;;;;1.50;1.40;;;;;;;15.48;41.22;99375.13;5456312;26;40525;-81
2024/04/22 13:16:34;;;;;;;1.50;1.40;;;;;;;15.28;40.58;99409.47;5454519;26;41837;-78
2024/04/22 13:19:06;;;;;;;1.73;1.63;;;;;;;14.67;41.95;99381.88;5467668;26;42979;-77
2024/04/22 13:21:35;;;;;;;1.97;1.67;;;;;;;14.31;43.81;99387.09;5493280;26;43115;-83
2024/04/22 13:24:02;;;;;;;2.40;2.20;;;;;;;13.54;45.02;99334.69;5482128;26;40014;-80
2024/04/22 13:26:31;;;;;;;2.00;1.90;;;;;;;13.34;46.73;99359.13;5424953;26;40260;-79
2024/04/22 13:28:58;;;;;;;2.27;2.07;;;;;;;12.86;47.80;99340.00;5454400;26;42476;-80
2024/04/22 13:31:27;;;;;;;2.40;2.20;;;;;;;12.53;49.63;99327.94;5454957;26;42357;-79
2024/04/22 13:33:54;;;;;;;1.97;1.87;;;;;;;12.28;50.77;99319.78;5459621;26;40313;-80
2024/04/22 13:36:26;;;;;;;2.30;1.90;;;;;;;12.26;51.76;99320.81;5492790;26;42709;-79
2024/04/22 13:38:52;;;;;;;2.37;2.17;;;;;;;12.08;53.44;99290.97;5490489;26;43778;-81
2024/04/22 13:41:21;;;;;;;2.00;1.90;;;;;;;12.13;53.54;99299.47;5453989;26;42337;-81
2024/04/22 13:43:48;;;;;;;2.67;2.30;;;;;;;11.95;53.06;99295.31;5456025;26;40179;-81
2024/04/22 13:46:17;;;;;;;1.77;1.63;;;;;;;11.87;53.17;99293.97;5489706;26;42417;-81
2024/04/22 13:48:48;;;;;;;1.90;1.67;;;;;;;12.00;54.48;99295.88;5490719;26;41468;-80
2024/04/22 13:51:18;;;;;;;2.87;1.73;;;;;;;12.13;54.49;99299.47;5460600;26;42291;-80
2024/04/22 13:53:47;;;;;;;1.80;1.70;;;;;;;12.07;54.76;99258.25;5454623;26;40422;-80
2024/04/22 13:56:17;;;;;;;2.17;1.97;;;;;;;12.21;54.14;99276.00;5484923;26;41624;-80
2024/04/22 13:58:43;;;;;;;2.33;2.20;;;;;;;12.34;55.35;99268.97;5492808;26;43027;-81
2024/04/22 14:01:12;;;;;;;2.17;1.93;;;;;;;12.38;54.30;99275.75;5467042;26;42331;-81
2024/04/22 14:03:39;;;;;;;2.70;2.00;;;;;;;12.46;52.94;99283.25;5454698;26;40322;-80
2024/04/22 14:06:08;;;;;;;2.20;1.73;;;;;;;12.56;53.14;99271.94;5475735;26;40295;-81
2024/04/22 14:08:35;;;;;;;2.20;2.00;;;;;;;12.77;53.11;99283.00;5492487;26;42566;-79
2024/04/22 14:11:09;;;;;;;2.30;2.10;;;;;;;12.88;51.38;99287.59;5474549;26;43079;-81
2024/04/22 14:13:35;;;;;;;1.97;1.77;;;;;;;12.88;51.56;99283.16;5454413;26;41247;-82
2024/04/22 14:16:04;;;;;;;2.53;1.90;;;;;;;13.01;51.67;99275.22;5438929;26;42663;-81
2024/04/22 14:18:31;;;;;;;2.40;2.20;;;;;;;13.13;50.98;99277.06;5490728;26;43669;-81
2024/04/22 14:21:00;;;;;;;2.20;2.00;;;;;;;13.24;48.68;99295.88;5476341;26;43262;-81
2024/04/22 14:23:27;;;;;;;2.50;2.30;;;;;;;13.45;47.72;99295.41;5454054;26;40453;-80
2024/04/22 14:25:58;;;;;;;2.00;1.80;;;;;;;13.66;48.24;99285.97;5465708;26;41508;-80
2024/04/22 14:28:28;;;;;;;2.00;1.90;;;;;;;14.02;47.37;99294.06;5490312;26;44057;-82
2024/04/22 14:30:57;;;;;;;2.60;2.00;;;;;;;14.13;47.16;99273.81;5489933;26;42365;-80
2024/04/22 14:33:24;;;;;;;2.70;2.07;;;;;;;14.57;46.54;99290.22;5489694;26;39201;-79
2024/04/22 14:35:53;;;;;;;1.80;1.70;;;;;;;15.00;45.74;99287.06;5486117;26;41552;-79
2024/04/22 14:38:20;;;;;;;1.73;1.63;;;;;;;15.36;44.52;99315.50;5423220;26;41886;-79
2024/04/22 14:40:49;;;;;;;2.27;2.07;;;;;;;15.67;43.87;99303.41;5454194;26;42424;-80
2024/04/22 14:43:15;;;;;;;2.07;1.87;;;;;;;16.16;41.72;99325.38;5423356;26;38718;-81
2024/04/22 14:45:47;;;;;;;5.13;1.87;;;;;;;16.38;39.41;99337.03;5453033;26;40308;-81
2024/04/22 14:48:13;;;;;;;1.70;1.60;;;;;;;16.57;38.43;99361.34;5488931;26;43135;-81
2024/04/22 14:50:43;;;;;;;1.40;1.30;;;;;;;16.61;37.36;99352.13;5459588;26;41838;-81
2024/04/22 14:53:09;;;;;;;1.57;1.40;;;;;;;16.59;37.03;99338.00;5456846;26;39836;-81
2024/04/22 14:55:39;;;;;;;1.77;1.40;;;;;;;16.64;37.00;99325.16;5456892;26;41899;-80
2024/04/22 14:58:06;;;;;;;1.77;1.50;;;;;;;16.82;36.31;99344.22;5424660;26;44779;-81
2024/04/22 15:00:35;;;;;;;1.40;1.30;;;;;;;16.91;36.03;99334.63;5455980;26;43022;-81
2024/04/22 15:03:05;;;;;;;1.57;1.47;;;;;;;17.06;36.54;99328.03;5450088;26;38606;-81
2024/04/22 15:05:34;;;;;;;1.47;1.37;;;;;;;16.91;37.06;99348.84;5493919;26;41780;-81
2024/04/22 15:08:00;;;;;;;2.17;1.33;;;;;;;16.33;37.62;99332.03;5438887;26;42064;-82
2024/04/22 15:10:30;;;;;;;1.80;1.70;;;;;;;15.91;38.47;99330.91;5457132;26;41967;-81
2024/04/22 15:12:56;;;;;;;1.63;1.53;;;;;;;15.46;40.02;99317.34;5476329;26;41295;-83
2024/04/22 15:15:26;;;;;;;2.17;1.70;;;;;;;15.17;40.24;99318.69;5463744;26;42367;-80
2024/04/22 15:17:52;;;;;;;2.00;1.50;;;;;;;14.89;39.80;99335.00;5445749;26;44193;-81
2024/04/22 15:20:24;;;;;;;1.63;1.53;;;;;;;14.44;39.89;99316.03;5425765;26;40691;-81
2024/04/22 15:22:51;;;;;;;1.70;1.60;;;;;;;14.18;40.97;99309.00;5467360;26;40101;-81
2024/04/22 15:25:20;;;;;;;1.73;1.63;;;;;;;14.04;41.36;99307.28;5491890;26;42411;-80
2024/04/22 15:27:46;;;;;;;2.43;2.23;;;;;;;13.91;40.65;99327.72;5484411;26;42970;-80
2024/04/22 15:30:15;;;;;;;2.23;2.03;;;;;;;13.79;41.62;99318.78;5455093;26;42155;-79
2024/04/22 15:32:42;;;;;;;1.70;1.60;;;;;;;13.56;40.90;99322.13;5429451;26;38951;-80
2024/04/22 15:35:11;;;;;;;2.23;1.80;;;;;;;13.41;41.88;99309.84;5492197;26;42891;-82
2024/04/22 15:37:40;;;;;;;2.03;1.73;;;;;;;13.33;43.23;99273.13;5492329;26;42835;-80
2024/04/22 15:40:10;;;;;;;2.50;1.80;;;;;;;13.30;43.31;99279.50;5455502;26;42032;-80
2024/04/22 15:42:37;;;;;;;2.03;1.77;;;;;;;13.29;43.56;99280.47;5455302;26;38884;-78
2024/04/22 15:45:06;;;;;;;2.37;1.50;;;;;;;13.19;43.23;99287.34;5490147;26;43371;-78
2024/04/22 15:47:33;;;;;;;1.93;1.73;;;;;;;13.04;43.22;99280.34;5491514;26;42989;-78
2024/04/22 15:50:02;;;;;;;1.40;1.30;;;;;;;13.12;43.68;99304.63;5459159;26;41989;-77
2024/04/22 15:52:29;;;;;;;1.60;1.50;;;;;;;13.03;43.93;99291.09;5455266;26;41678;-79
2024/04/22 15:55:01;;;;;;;1.83;1.40;;;;;;;12.90;44.68;99264.44;5485821;26;41593;-81
2024/04/22 15:57:27;;;;;;;1.47;1.37;;;;;;;12.86;44.44;99273.56;5494209;26;42573;-81
2024/04/22 15:59:56;;;;;;;2.00;1.57;;;;;;;12.69;44.57;99271.16;5466519;26;43209;-82
2024/04/22 16:02:23;;;;;;;1.33;1.23;;;;;;;12.64;44.65;99291.84;5456299;26;40999;-80
2024/04/22 16:04:52;;;;;;;3.50;1.30;;;;;;;12.37;44.55;99274.06;5478990;26;41868;-80
2024/04/22 16:07:19;;;;;;;2.23;1.87;;;;;;;12.21;44.66;99266.22;5492173;26;42508;-79
2024/04/22 16:09:48;;;;;;;1.40;1.30;;;;;;;12.20;45.17;99279.59;5474826;26;42172;-80
2024/04/22 16:12:17;;;;;;;1.23;1.10;;;;;;;12.29;45.55;99279.00;5455723;26;40113;-80
2024/04/22 16:14:47;;;;;;;1.70;1.60;;;;;;;12.30;45.60;99272.75;5471005;26;42592;-79
2024/04/22 16:17:13;;;;;;;1.67;1.40;;;;;;;12.10;45.15;99244.81;5492020;26;42650;-80
2024/04/22 16:19:43;;;;;;;1.60;1.50;;;;;;;12.10;45.41;99270.50;5479847;26;43770;-79
2024/04/22 16:22:09;;;;;;;1.57;1.47;;;;;;;11.94;45.65;99256.44;5457299;26;40752;-82
2024/04/22 16:24:38;;;;;;;1.80;1.60;;;;;;;11.70;45.69;99253.47;5463503;26;42530;-80
2024/04/22 16:27:04;;;;;;;2.43;1.50;;;;;;;11.47;45.42;99252.19;5492055;26;42926;-81
2024/04/22 16:29:36;;;;;;;1.77;1.43;;;;;;;11.39;45.61;99259.75;5488309;26;43270;-80
2024/04/22 16:32:03;;;;;;;2.07;1.40;;;;;;;11.32;45.81;99269.03;5457245;26;40351;-82
2024/04/22 16:34:34;;;;;;;1.60;1.50;;;;;;;11.12;46.49;99251.66;5457402;26;41062;-83
2024/04/22 16:37:00;;;;;;;1.60;1.50;;;;;;;10.95;46.91;99236.72;5461747;26;41972;-80
2024/04/22 16:39:30;;;;;;;2.10;1.70;;;;;;;11.00;47.26;99263.78;5492569;26;42448;-82
2024/04/22 16:41:56;;;;;;;1.93;1.83;;;;;;;10.90;47.61;99257.31;5425712;26;38508;-80
2024/04/22 16:44:26;;;;;;;2.40;2.20;;;;;;;10.69;47.98;99240.84;5455842;26;41901;-82
2024/04/22 16:46:57;;;;;;;2.57;2.37;;;;;;;10.61;48.14;99251.03;5487561;26;44122;-80
2024/04/22 16:49:27;;;;;;;3.40;1.73;;;;;;;10.61;48.33;99251.03;5493060;26;43153;-83
2024/04/22 16:51:53;;;;;;;1.90;1.80;;;;;;;10.55;48.54;99239.91;5461345;26;40456;-85
2024/04/22 16:54:22;;;;;;;2.80;1.87;;;;;;;10.52;48.75;99237.44;5493067;26;41780;-84
2024/04/22 16:56:49;;;;;;;2.77;2.50;;;;;;;10.66;49.00;99270.16;5435194;26;41504;-82
2024/04/22 16:59:18;;;;;;;2.30;2.10;;;;;;;10.56;49.78;99255.72;5425906;26;41089;-83
2024/04/22 17:01:45;;;;;;;2.20;2.00;;;;;;;10.50;49.59;99247.28;5478727;26;40265;-84
2024/04/22 17:04:16;;;;;;;1.70;1.60;;;;;;;10.56;49.45;99257.53;5461483;26;40387;-83
2024/04/22 17:06:43;;;;;;;2.03;1.63;;;;;;;10.56;50.41;99262.81;5491349;26;42907;-83
2024/04/22 17:09:12;;;;;;;1.73;1.63;;;;;;;10.46;50.65;99261.63;5491830;26;42255;-84
2024/04/22 17:11:38;;;;;;;2.43;1.90;;;;;;;10.16;50.21;99245.59;5473800;26;39479;-84
2024/04/22 17:14:08;;;;;;;1.77;1.60;;;;;;;10.08;50.96;99253.94;5455273;26;41518;-83
2024/04/22 17:16:35;;;;;;;2.33;2.00;;;;;;;9.96;50.29;99247.53;5466063;26;42709;-85
2024/04/22 17:19:04;;;;;;;1.80;1.70;;;;;;;9.88;50.34;99244.47;5489649;26;42816;-82
2024/04/22 17:21:34;;;;;;;2.20;2.00;;;;;;;9.99;50.70;99263.25;5424552;26;38922;-84
2024/04/22 17:24:03;;;;;;;2.43;2.23;;;;;;;9.85;50.77;99249.03;5455600;26;41573;-84
2024/04/22 17:26:30;;;;;;;2.63;2.10;;;;;;;9.76;51.26;99244.25;5455367;26;42642;-83
2024/04/22 17:28:59;;;;;;;2.00;1.80;;;;;;;9.70;50.91;99256.84;5425487;26;41888;-83
2024/04/22 17:31:26;;;;;;;2.77;2.47;;;;;;;9.61;51.69;99251.19;5457389;26;41072;-83
2024/04/22 17:33:55;;;;;;;2.33;2.03;;;;;;;9.39;51.43;99229.47;5491774;26;41901;-84
2024/04/22 17:36:22;;;;;;;3.13;2.50;;;;;;;9.28;51.83;99229.97;5461333;26;42914;-84
2024/04/22 17:38:54;;;;;;;1.97;1.80;;;;;;;9.20;51.88;99225.09;5491108;26;42753;-83
2024/04/22 17:41:20;;;;;;;3.57;2.67;;;;;;;9.20;52.72;99240.09;5460775;26;38634;-83
2024/04/22 17:43:49;;;;;;;2.93;2.63;;;;;;;9.00;52.98;99225.25;5492392;26;41543;-84
2024/04/22 17:46:16;;;;;;;3.90;2.20;;;;;;;8.90;52.79;99218.75;5491129;26;42899;-83
2024/04/22 17:48:46;;;;;;;2.20;2.00;;;;;;;8.74;52.98;99194.00;5491011;26;43325;-83
2024/04/22 17:51:15;;;;;;;1.90;1.70;;;;;;;8.82;53.00;99212.97;5460441;26;39170;-84
2024/04/22 17:53:44;;;;;;;2.00;1.57;;;;;;;8.72;53.23;99209.94;5433647;26;41553;-83
2024/04/22 17:56:15;;;;;;;1.83;1.73;;;;;;;8.71;53.14;99218.78;5424834;26;41523;-84
2024/04/22 17:58:45;;;;;;;2.00;1.80;;;;;;;8.68;53.57;99220.69;5455835;26;42813;-83
2024/04/22 18:01:12;;;;;;;2.00;1.90;;;;;;;8.67;53.61;99219.84;5454273;26;38890;-84
2024/04/22 18:03:43;;;;;;;2.20;2.00;;;;;;;8.67;53.98;99217.22;5446371;26;40596;-83
2024/04/22 18:06:09;;;;;;;3.00;1.70;;;;;;;8.70;54.02;99232.91;5460843;26;41432;-83
2024/04/22 18:08:39;;;;;;;2.47;2.10;;;;;;;8.55;54.15;99215.16;5490375;26;40890;-83
2024/04/22 18:11:05;;;;;;;2.00;1.60;;;;;;;8.49;54.19;99220.75;5492643;26;40320;-83
2024/04/22 18:13:37;;;;;;;2.67;2.10;;;;;;;8.36;54.33;99209.94;5476943;26;42275;-83
2024/04/22 18:16:04;;;;;;;1.67;1.57;;;;;;;8.29;54.41;99224.28;5454150;26;42423;-83